sensor_id;sensor_type;location;lat;lon;timestamp;pressure;altitude;pressure_sealevel;temperature;humidity
38227;BME280;24026;49.446;8.576;2023-04-30T00:01:25;100917.41;;;16.29;60.69
38227;BME280;24026;49.446;8.576;2023-04-30T00:03:45;100912.84;;;16.29;60.72
38227;BME280;24026;49.446;8.576;2023-04-30T00:06:05;100915.78;;;16.28;60.81
38227;BME280;24026;49.446;8.576;2023-04-30T00:08:26;100921.16;;;16.28;60.73
38227;BME280;24026;49.446;8.576;2023-04-30T00:10:46;100919.53;;;16.27;60.85
38227;BME280;24026;49.446;8.576;2023-04-30T00:13:06;100920.34;;;16.27;60.80
38227;BME280;24026;49.446;8.576;2023-04-30T00:15:27;100920.34;;;16.27;60.64
38227;BME280;24026;49.446;8.576;2023-04-30T00:17:47;100921.69;;;16.25;60.90
38227;BME280;24026;49.446;8.576;2023-04-30T00:20:08;100922.47;;;16.25;60.76
38227;BME280;24026;49.446;8.576;2023-04-30T00:22:28;100927.03;;;16.25;60.58
38227;BME280;24026;49.446;8.576;2023-04-30T00:24:48;100930.25;;;16.27;60.56
38227;BME280;24026;49.446;8.576;2023-04-30T00:27:08;100929.72;;;16.25;60.76
38227;BME280;24026;49.446;8.576;2023-04-30T00:29:29;100934.81;;;16.26;60.64
38227;BME280;24026;49.446;8.576;2023-04-30T00:31:49;100940.47;;;16.25;60.64
38227;BME280;24026;49.446;8.576;2023-04-30T00:34:09;100936.97;;;16.24;60.60
38227;BME280;24026;49.446;8.576;2023-04-30T00:36:30;100938.88;;;16.24;60.70
38227;BME280;24026;49.446;8.576;2023-04-30T00:38:50;100938.03;;;16.23;60.70
38227;BME280;24026;49.446;8.576;2023-04-30T00:41:11;100934.56;;;16.23;60.54
38227;BME280;24026;49.446;8.576;2023-04-30T00:43:31;100937.25;;;16.23;60.75
38227;BME280;24026;49.446;8.576;2023-04-30T00:45:53;100935.34;;;16.23;60.59
38227;BME280;24026;49.446;8.576;2023-04-30T00:48:14;100933.19;;;16.20;60.76
38227;BME280;24026;49.446;8.576;2023-04-30T00:50:35;100935.63;;;16.22;60.63
38227;BME280;24026;49.446;8.576;2023-04-30T00:52:56;100930.25;;;16.22;60.54
38227;BME280;24026;49.446;8.576;2023-04-30T00:55:16;100930.25;;;16.22;60.52
38227;BME280;24026;49.446;8.576;2023-04-30T00:57:37;100927.56;;;16.22;60.62
38227;BME280;24026;49.446;8.576;2023-04-30T00:59:58;100925.16;;;16.20;60.67
38227;BME280;24026;49.446;8.576;2023-04-30T01:02:18;100927.03;;;16.20;60.44
38227;BME280;24026;49.446;8.576;2023-04-30T01:04:38;100929.72;;;16.20;60.67
38227;BME280;24026;49.446;8.576;2023-04-30T01:06:59;100933.47;;;16.19;60.50
38227;BME280;24026;49.446;8.576;2023-04-30T01:09:21;100930.25;;;16.17;60.55
38227;BME280;24026;49.446;8.576;2023-04-30T01:12:16;100926.78;;;16.16;60.60
38227;BME280;24026;49.446;8.576;2023-04-30T01:17:09;100938.03;;;16.18;60.59
38227;BME280;24026;49.446;8.576;2023-04-30T01:19:37;100935.59;;;16.17;60.52
38227;BME280;24026;49.446;8.576;2023-04-30T01:21:58;100934.81;;;16.16;60.37
38227;BME280;24026;49.446;8.576;2023-04-30T01:24:31;100931.34;;;16.16;60.43
38227;BME280;24026;49.446;8.576;2023-04-30T01:29:22;100926.25;;;16.14;60.41
38227;BME280;24026;49.446;8.576;2023-04-30T01:31:44;100919.00;;;16.15;60.33
38227;BME280;24026;49.446;8.576;2023-04-30T01:34:04;100920.06;;;16.14;60.44
38227;BME280;24026;49.446;8.576;2023-04-30T01:36:30;100918.19;;;16.14;60.50
38227;BME280;24026;49.446;8.576;2023-04-30T01:48:42;100907.72;;;16.13;60.53
38227;BME280;24026;49.446;8.576;2023-04-30T01:51:07;100920.31;;;16.12;60.31
38227;BME280;24026;49.446;8.576;2023-04-30T01:53:40;100916.31;;;16.09;60.61
38227;BME280;24026;49.446;8.576;2023-04-30T01:56:02;100916.03;;;16.11;60.43
38227;BME280;24026;49.446;8.576;2023-04-30T01:58:23;100915.25;;;16.10;60.32
38227;BME280;24026;49.446;8.576;2023-04-30T02:00:44;100915.25;;;16.10;60.22
38227;BME280;24026;49.446;8.576;2023-04-30T02:03:05;100918.97;;;16.09;60.35
38227;BME280;24026;49.446;8.576;2023-04-30T02:05:25;100918.97;;;16.09;60.38
38227;BME280;24026;49.446;8.576;2023-04-30T02:07:46;100923.56;;;16.09;60.45
38227;BME280;24026;49.446;8.576;2023-04-30T02:10:07;100920.88;;;16.09;60.56
38227;BME280;24026;49.446;8.576;2023-04-30T02:12:28;100923.00;;;16.07;60.39
38227;BME280;24026;49.446;8.576;2023-04-30T02:14:49;100912.00;;;16.08;60.35
38227;BME280;24026;49.446;8.576;2023-04-30T02:17:09;100914.69;;;16.08;60.37
38227;BME280;24026;49.446;8.576;2023-04-30T02:19:29;100920.03;;;16.08;60.43
38227;BME280;24026;49.446;8.576;2023-04-30T02:21:49;100914.16;;;16.06;60.42
38227;BME280;24026;49.446;8.576;2023-04-30T02:24:10;100914.16;;;16.06;60.39
38227;BME280;24026;49.446;8.576;2023-04-30T02:26:30;100922.19;;;16.06;60.19
38227;BME280;24026;49.446;8.576;2023-04-30T02:28:50;100920.56;;;16.05;60.40
38227;BME280;24026;49.446;8.576;2023-04-30T02:31:10;100922.44;;;16.05;60.26
38227;BME280;24026;49.446;8.576;2023-04-30T02:33:31;100919.25;;;16.03;60.28
38227;BME280;24026;49.446;8.576;2023-04-30T02:35:51;100923.53;;;16.04;60.14
38227;BME280;24026;49.446;8.576;2023-04-30T02:38:11;100924.06;;;16.01;60.45
38227;BME280;24026;49.446;8.576;2023-04-30T02:40:32;100911.47;;;16.01;60.41
38227;BME280;24026;49.446;8.576;2023-04-30T02:42:52;100919.50;;;16.01;60.15
38227;BME280;24026;49.446;8.576;2023-04-30T02:45:13;100913.09;;;16.02;60.13
38227;BME280;24026;49.446;8.576;2023-04-30T02:47:34;100917.63;;;16.02;59.92
38227;BME280;24026;49.446;8.576;2023-04-30T02:49:54;100910.41;;;16.02;60.06
38227;BME280;24026;49.446;8.576;2023-04-30T02:52:14;100914.94;;;16.02;60.12
38227;BME280;24026;49.446;8.576;2023-04-30T02:54:35;100918.72;;;16.01;60.08
38227;BME280;24026;49.446;8.576;2023-04-30T02:56:55;100907.97;;;16.01;59.90
38227;BME280;24026;49.446;8.576;2023-04-30T02:59:15;100908.78;;;16.01;59.86
38227;BME280;24026;49.446;8.576;2023-04-30T03:01:36;100913.34;;;16.01;59.87
38227;BME280;24026;49.446;8.576;2023-04-30T03:03:56;100908.25;;;15.99;60.08
38227;BME280;24026;49.446;8.576;2023-04-30T03:06:17;100910.09;;;15.99;60.05
38227;BME280;24026;49.446;8.576;2023-04-30T03:08:37;100917.09;;;16.00;59.92
38227;BME280;24026;49.446;8.576;2023-04-30T03:10:58;100917.34;;;15.98;59.96
38227;BME280;24026;49.446;8.576;2023-04-30T03:13:18;100920.28;;;15.97;60.03
38227;BME280;24026;49.446;8.576;2023-04-30T03:15:38;100916.56;;;15.98;59.82
38227;BME280;24026;49.446;8.576;2023-04-30T03:17:58;100921.91;;;15.98;59.91
38227;BME280;24026;49.446;8.576;2023-04-30T03:20:19;100914.66;;;15.98;59.67
38227;BME280;24026;49.446;8.576;2023-04-30T03:22:39;100919.50;;;15.96;59.92
38227;BME280;24026;49.446;8.576;2023-04-30T03:25:00;100914.13;;;15.96;59.89
38227;BME280;24026;49.446;8.576;2023-04-30T03:27:20;100918.44;;;15.97;59.90
38227;BME280;24026;49.446;8.576;2023-04-30T03:29:41;100916.00;;;15.96;59.86
38227;BME280;24026;49.446;8.576;2023-04-30T03:32:02;100915.75;;;15.97;59.85
38227;BME280;24026;49.446;8.576;2023-04-30T03:34:22;100912.50;;;15.95;59.76
38227;BME280;24026;49.446;8.576;2023-04-30T03:36:42;100907.97;;;15.96;59.90
38227;BME280;24026;49.446;8.576;2023-04-30T03:39:02;100909.81;;;15.95;59.88
38227;BME280;24026;49.446;8.576;2023-04-30T03:41:23;100909.28;;;15.93;59.71
38227;BME280;24026;49.446;8.576;2023-04-30T03:43:43;100908.22;;;15.94;59.71
38227;BME280;24026;49.446;8.576;2023-04-30T03:46:03;100907.41;;;15.93;59.69
38227;BME280;24026;49.446;8.576;2023-04-30T03:48:24;100910.91;;;15.94;59.67
38227;BME280;24026;49.446;8.576;2023-04-30T03:50:44;100917.34;;;15.93;59.62
38227;BME280;24026;49.446;8.576;2023-04-30T03:53:05;100918.13;;;15.93;59.70
38227;BME280;24026;49.446;8.576;2023-04-30T03:55:25;100912.78;;;15.93;59.70
38227;BME280;24026;49.446;8.576;2023-04-30T03:57:46;100909.56;;;15.91;59.53
38227;BME280;24026;49.446;8.576;2023-04-30T04:00:06;100915.72;;;15.92;59.77
38227;BME280;24026;49.446;8.576;2023-04-30T04:02:26;100914.13;;;15.91;59.69
38227;BME280;24026;49.446;8.576;2023-04-30T04:04:47;100910.34;;;15.92;59.74
38227;BME280;24026;49.446;8.576;2023-04-30T04:07:07;100906.06;;;15.91;59.39
38227;BME280;24026;49.446;8.576;2023-04-30T04:09:28;100910.66;;;15.90;59.71
38227;BME280;24026;49.446;8.576;2023-04-30T04:11:49;100914.13;;;15.91;59.57
38227;BME280;24026;49.446;8.576;2023-04-30T04:14:09;100917.84;;;15.90;59.59
38227;BME280;24026;49.446;8.576;2023-04-30T04:16:29;100924.84;;;15.91;59.45
38227;BME280;24026;49.446;8.576;2023-04-30T04:18:50;100917.06;;;15.89;59.66
38227;BME280;24026;49.446;8.576;2023-04-30T04:21:10;100915.44;;;15.88;59.58
38227;BME280;24026;49.446;8.576;2023-04-30T04:23:30;100920.00;;;15.88;59.57
38227;BME280;24026;49.446;8.576;2023-04-30T04:25:51;100926.16;;;15.88;59.36
38227;BME280;24026;49.446;8.576;2023-04-30T04:28:12;100935.28;;;15.87;59.68
38227;BME280;24026;49.446;8.576;2023-04-30T04:30:32;100927.00;;;15.89;59.40
38227;BME280;24026;49.446;8.576;2023-04-30T04:32:52;100927.00;;;15.89;59.50
38227;BME280;24026;49.446;8.576;2023-04-30T04:35:13;100935.28;;;15.87;59.39
38227;BME280;24026;49.446;8.576;2023-04-30T04:37:34;100934.47;;;15.87;59.51
38227;BME280;24026;49.446;8.576;2023-04-30T04:39:54;100935.28;;;15.87;59.40
38227;BME280;24026;49.446;8.576;2023-04-30T04:42:15;100942.25;;;15.88;59.40
38227;BME280;24026;49.446;8.576;2023-04-30T04:44:36;100934.19;;;15.88;59.16
38227;BME280;24026;49.446;8.576;2023-04-30T04:46:57;100936.09;;;15.88;59.34
38227;BME280;24026;49.446;8.576;2023-04-30T04:49:17;100938.75;;;15.88;59.16
38227;BME280;24026;49.446;8.576;2023-04-30T04:51:37;100939.28;;;15.85;59.37
38227;BME280;24026;49.446;8.576;2023-04-30T04:53:58;100939.81;;;15.87;59.18
38227;BME280;24026;49.446;8.576;2023-04-30T04:56:18;100935.28;;;15.87;59.07
38227;BME280;24026;49.446;8.576;2023-04-30T04:58:40;100937.16;;;15.87;59.17
38227;BME280;24026;49.446;8.576;2023-04-30T05:01:00;100934.47;;;15.87;59.32
38227;BME280;24026;49.446;8.576;2023-04-30T05:03:20;100941.44;;;15.88;59.07
38227;BME280;24026;49.446;8.576;2023-04-30T05:05:41;100931.00;;;15.86;59.24
38227;BME280;24026;49.446;8.576;2023-04-30T05:08:02;100939.03;;;15.86;59.20
38227;BME280;24026;49.446;8.576;2023-04-30T05:10:22;100941.72;;;15.86;59.09
38227;BME280;24026;49.446;8.576;2023-04-30T05:12:42;100938.22;;;15.86;59.15
38227;BME280;24026;49.446;8.576;2023-04-30T05:15:03;100932.88;;;15.86;59.16
38227;BME280;24026;49.446;8.576;2023-04-30T05:17:23;100928.56;;;15.85;59.04
38227;BME280;24026;49.446;8.576;2023-04-30T05:19:43;100932.88;;;15.86;58.95
38227;BME280;24026;49.446;8.576;2023-04-30T05:22:06;100942.50;;;15.87;59.08
38227;BME280;24026;49.446;8.576;2023-04-30T05:24:27;100937.16;;;15.87;58.99
38227;BME280;24026;49.446;8.576;2023-04-30T05:26:48;100937.16;;;15.87;58.90
38227;BME280;24026;49.446;8.576;2023-04-30T05:29:08;100941.44;;;15.88;58.97
38227;BME280;24026;49.446;8.576;2023-04-30T05:31:30;100940.66;;;15.87;58.94
38227;BME280;24026;49.446;8.576;2023-04-30T05:33:51;100940.66;;;15.87;58.88
38227;BME280;24026;49.446;8.576;2023-04-30T05:36:12;100947.88;;;15.87;58.80
38227;BME280;24026;49.446;8.576;2023-04-30T05:38:32;100942.50;;;15.87;58.90
38227;BME280;24026;49.446;8.576;2023-04-30T05:40:52;100944.13;;;15.88;58.83
38227;BME280;24026;49.446;8.576;2023-04-30T05:43:13;100946.81;;;15.88;58.73
38227;BME280;24026;49.446;8.576;2023-04-30T05:45:33;100945.75;;;15.89;58.65
38227;BME280;24026;49.446;8.576;2023-04-30T05:47:53;100944.41;;;15.91;58.72
38227;BME280;24026;49.446;8.576;2023-04-30T05:50:14;100940.94;;;15.91;58.61
38227;BME280;24026;49.446;8.576;2023-04-30T05:52:34;100937.16;;;15.92;58.62
38227;BME280;24026;49.446;8.576;2023-04-30T05:54:54;100939.84;;;15.92;58.52
38227;BME280;24026;49.446;8.576;2023-04-30T05:57:15;100941.72;;;15.91;58.53
38227;BME280;24026;49.446;8.576;2023-04-30T05:59:35;100936.91;;;15.93;58.51
38227;BME280;24026;49.446;8.576;2023-04-30T06:01:55;100941.19;;;15.95;58.44
38227;BME280;24026;49.446;8.576;2023-04-30T06:04:16;100939.31;;;15.95;58.25
38227;BME280;24026;49.446;8.576;2023-04-30T06:06:36;100946.56;;;15.95;58.34
38227;BME280;24026;49.446;8.576;2023-04-30T06:08:56;100947.91;;;15.97;58.29
38227;BME280;24026;49.446;8.576;2023-04-30T06:11:17;100954.06;;;15.98;58.29
38227;BME280;24026;49.446;8.576;2023-04-30T06:13:37;100946.56;;;16.00;58.08
38227;BME280;24026;49.446;8.576;2023-04-30T06:15:58;100947.38;;;16.00;58.07
38227;BME280;24026;49.446;8.576;2023-04-30T06:18:18;100947.09;;;16.02;57.94
38227;BME280;24026;49.446;8.576;2023-04-30T06:20:39;100946.84;;;16.03;58.04
38227;BME280;24026;49.446;8.576;2023-04-30T06:22:59;100943.91;;;16.05;57.86
38227;BME280;24026;49.446;8.576;2023-04-30T06:25:21;100951.94;;;16.05;57.97
38227;BME280;24026;49.446;8.576;2023-04-30T06:27:42;100945.53;;;16.06;57.91
38227;BME280;24026;49.446;8.576;2023-04-30T06:30:02;100942.59;;;16.07;57.86
38227;BME280;24026;49.446;8.576;2023-04-30T06:32:23;100955.72;;;16.09;57.71
38227;BME280;24026;49.446;8.576;2023-04-30T06:34:43;100952.78;;;16.10;57.54
38227;BME280;24026;49.446;8.576;2023-04-30T06:37:03;100952.50;;;16.12;57.60
38227;BME280;24026;49.446;8.576;2023-04-30T06:39:23;100950.38;;;16.14;57.61
38227;BME280;24026;49.446;8.576;2023-04-30T06:41:44;100953.59;;;16.16;57.45
38227;BME280;24026;49.446;8.576;2023-04-30T06:44:07;100954.38;;;16.17;57.41
38227;BME280;24026;49.446;8.576;2023-04-30T06:46:27;100962.97;;;16.19;57.49
38227;BME280;24026;49.446;8.576;2023-04-30T06:48:48;100955.47;;;16.21;57.29
38227;BME280;24026;49.446;8.576;2023-04-30T06:51:08;100960.84;;;16.21;57.32
38227;BME280;24026;49.446;8.576;2023-04-30T06:53:28;100958.69;;;16.23;57.29
38227;BME280;24026;49.446;8.576;2023-04-30T06:55:48;100965.94;;;16.22;57.08
38227;BME280;24026;49.446;8.576;2023-04-30T06:58:09;100968.38;;;16.24;57.01
38227;BME280;24026;49.446;8.576;2023-04-30T07:00:30;100960.31;;;16.24;57.20
38227;BME280;24026;49.446;8.576;2023-04-30T07:02:50;100957.34;;;16.25;57.10
38227;BME280;24026;49.446;8.576;2023-04-30T07:05:11;100958.16;;;16.26;56.87
38227;BME280;24026;49.446;8.576;2023-04-30T07:07:32;100956.03;;;16.28;56.82
38227;BME280;24026;49.446;8.576;2023-04-30T07:09:52;100953.06;;;16.29;56.98
38227;BME280;24026;49.446;8.576;2023-04-30T07:12:12;100956.28;;;16.32;56.75
38227;BME280;24026;49.446;8.576;2023-04-30T07:14:33;100956.81;;;16.34;56.85
38227;BME280;24026;49.446;8.576;2023-04-30T07:16:54;100960.06;;;16.36;56.64
38227;BME280;24026;49.446;8.576;2023-04-30T07:19:14;100962.19;;;16.39;56.60
38227;BME280;24026;49.446;8.576;2023-04-30T07:21:35;100961.94;;;16.40;56.64
38227;BME280;24026;49.446;8.576;2023-04-30T07:23:55;100967.28;;;16.40;56.70
38227;BME280;24026;49.446;8.576;2023-04-30T07:26:15;100965.16;;;16.42;56.23
38227;BME280;24026;49.446;8.576;2023-04-30T07:28:35;100961.13;;;16.45;56.08
38227;BME280;24026;49.446;8.576;2023-04-30T07:30:55;100962.75;;;16.46;55.86
38227;BME280;24026;49.446;8.576;2023-04-30T07:33:16;100965.97;;;16.48;55.50
38227;BME280;24026;49.446;8.576;2023-04-30T07:35:36;100966.50;;;16.50;55.37
38227;BME280;24026;49.446;8.576;2023-04-30T07:37:56;100965.44;;;16.51;55.15
38227;BME280;24026;49.446;8.576;2023-04-30T07:40:17;100959.81;;;16.53;55.24
38227;BME280;24026;49.446;8.576;2023-04-30T07:42:40;100964.09;;;16.54;55.34
38227;BME280;24026;49.446;8.576;2023-04-30T07:45:04;100956.59;;;16.56;55.36
38227;BME280;24026;49.446;8.576;2023-04-30T07:47:24;100957.13;;;16.58;55.11
38227;BME280;24026;49.446;8.576;2023-04-30T07:49:45;100961.41;;;16.59;55.00
38227;BME280;24026;49.446;8.576;2023-04-30T07:52:06;100956.59;;;16.61;54.94
38227;BME280;24026;49.446;8.576;2023-04-30T07:54:29;100959.03;;;16.62;55.41
38227;BME280;24026;49.446;8.576;2023-04-30T07:56:50;100960.59;;;16.63;55.20
38227;BME280;24026;49.446;8.576;2023-04-30T07:59:10;100954.97;;;16.65;55.06
38227;BME280;24026;49.446;8.576;2023-04-30T08:01:30;100963.56;;;16.67;55.13
38227;BME280;24026;49.446;8.576;2023-04-30T08:03:51;100957.66;;;16.70;55.13
38227;BME280;24026;49.446;8.576;2023-04-30T08:06:11;100963.84;;;16.71;54.91
38227;BME280;24026;49.446;8.576;2023-04-30T08:08:31;100959.81;;;16.73;55.13
38227;BME280;24026;49.446;8.576;2023-04-30T08:10:51;100956.84;;;16.75;54.93
38227;BME280;24026;49.446;8.576;2023-04-30T08:13:12;100963.03;;;16.75;54.86
38227;BME280;24026;49.446;8.576;2023-04-30T08:15:32;100959.28;;;16.76;54.76
38227;BME280;24026;49.446;8.576;2023-04-30T08:17:52;100951.75;;;16.78;54.71
38227;BME280;24026;49.446;8.576;2023-04-30T08:20:13;100954.16;;;16.80;54.69
38227;BME280;24026;49.446;8.576;2023-04-30T08:22:33;100961.16;;;16.81;54.89
38227;BME280;24026;49.446;8.576;2023-04-30T08:24:53;100953.13;;;16.81;54.59
38227;BME280;24026;49.446;8.576;2023-04-30T08:27:14;100952.56;;;16.84;54.67
38227;BME280;24026;49.446;8.576;2023-04-30T08:29:35;100957.69;;;16.85;54.79
38227;BME280;24026;49.446;8.576;2023-04-30T08:31:56;100952.88;;;16.88;54.62
38227;BME280;24026;49.446;8.576;2023-04-30T08:34:18;100959.81;;;16.89;54.27
38227;BME280;24026;49.446;8.576;2023-04-30T08:36:38;100949.09;;;16.89;54.25
38227;BME280;24026;49.446;8.576;2023-04-30T08:38:58;100956.59;;;16.92;54.48
38227;BME280;24026;49.446;8.576;2023-04-30T08:41:21;100953.66;;;16.93;54.46
38227;BME280;24026;49.446;8.576;2023-04-30T08:43:44;100953.38;;;16.95;54.19
38227;BME280;24026;49.446;8.576;2023-04-30T08:46:05;100946.97;;;16.96;54.06
38227;BME280;24026;49.446;8.576;2023-04-30T08:48:25;100955.53;;;16.98;54.20
38227;BME280;24026;49.446;8.576;2023-04-30T08:50:46;100950.16;;;16.98;53.99
38227;BME280;24026;49.446;8.576;2023-04-30T08:53:07;100949.91;;;16.99;54.24
38227;BME280;24026;49.446;8.576;2023-04-30T08:55:27;100959.81;;;16.99;54.29
38227;BME280;24026;49.446;8.576;2023-04-30T08:57:47;100947.22;;;16.99;54.21
38227;BME280;24026;49.446;8.576;2023-04-30T09:00:08;100949.63;;;17.01;53.88
38227;BME280;24026;49.446;8.576;2023-04-30T09:02:30;100953.91;;;17.02;53.64
38227;BME280;24026;49.446;8.576;2023-04-30T09:04:50;100947.22;;;17.04;53.55
38227;BME280;24026;49.446;8.576;2023-04-30T09:07:12;100954.47;;;17.04;53.43
38227;BME280;24026;49.446;8.576;2023-04-30T09:09:37;100948.78;;;17.06;53.30
38227;BME280;24026;49.446;8.576;2023-04-30T09:12:10;100952.31;;;17.06;53.14
38227;BME280;24026;49.446;8.576;2023-04-30T09:14:32;100949.34;;;17.08;53.08
38227;BME280;24026;49.446;8.576;2023-04-30T09:16:55;100945.56;;;17.09;53.52
38227;BME280;24026;49.446;8.576;2023-04-30T09:19:25;100949.88;;;17.10;53.54
38227;BME280;24026;49.446;8.576;2023-04-30T09:21:45;100944.50;;;17.10;53.22
38227;BME280;24026;49.446;8.576;2023-04-30T09:24:06;100948.81;;;17.11;53.18
38227;BME280;24026;49.446;8.576;2023-04-30T09:26:30;100938.59;;;17.13;53.52
38227;BME280;24026;49.446;8.576;2023-04-30T09:28:52;100945.84;;;17.12;53.36
38227;BME280;24026;49.446;8.576;2023-04-30T09:31:19;100945.56;;;17.14;53.16
38227;BME280;24026;49.446;8.576;2023-04-30T09:33:45;100942.59;;;17.15;53.06
38227;BME280;24026;49.446;8.576;2023-04-30T09:36:09;100949.59;;;17.16;52.99
38227;BME280;24026;49.446;8.576;2023-04-30T09:38:30;100938.84;;;17.16;53.08
38227;BME280;24026;49.446;8.576;2023-04-30T09:40:51;100943.97;;;17.18;52.87
38227;BME280;24026;49.446;8.576;2023-04-30T09:43:11;100945.53;;;17.19;52.90
38227;BME280;24026;49.446;8.576;2023-04-30T09:46:05;100935.63;;;17.19;52.81
38227;BME280;24026;49.446;8.576;2023-04-30T09:48:21;100939.91;;;17.20;52.85
38227;BME280;24026;49.446;8.576;2023-04-30T09:50:42;100925.94;;;17.23;52.99
38227;BME280;24026;49.446;8.576;2023-04-30T09:53:04;100932.13;;;17.24;52.73
38227;BME280;24026;49.446;8.576;2023-04-30T09:55:24;100933.72;;;17.25;52.61
38227;BME280;24026;49.446;8.576;2023-04-30T09:57:45;100935.34;;;17.26;52.75
38227;BME280;24026;49.446;8.576;2023-04-30T10:00:06;100931.84;;;17.26;52.39
38227;BME280;24026;49.446;8.576;2023-04-30T10:02:27;100928.88;;;17.27;52.14
38227;BME280;24026;49.446;8.576;2023-04-30T10:04:48;100935.06;;;17.28;52.47
38227;BME280;24026;49.446;8.576;2023-04-30T10:07:14;100932.13;;;17.29;52.34
38227;BME280;24026;49.446;8.576;2023-04-30T10:09:38;100930.22;;;17.30;52.44
38227;BME280;24026;49.446;8.576;2023-04-30T10:11:59;100927.53;;;17.30;51.91
38227;BME280;24026;49.446;8.576;2023-04-30T10:14:21;100924.06;;;17.29;51.99
38227;BME280;24026;49.446;8.576;2023-04-30T10:16:56;100922.69;;;17.32;52.05
38227;BME280;24026;49.446;8.576;2023-04-30T10:19:18;100925.38;;;17.32;51.80
38227;BME280;24026;49.446;8.576;2023-04-30T10:21:39;100924.59;;;17.31;51.66
38227;BME280;24026;49.446;8.576;2023-04-30T10:24:01;100925.09;;;17.33;51.84
38227;BME280;24026;49.446;8.576;2023-04-30T10:26:22;100918.13;;;17.32;51.83
38227;BME280;24026;49.446;8.576;2023-04-30T10:28:43;100923.22;;;17.34;51.79
38227;BME280;24026;49.446;8.576;2023-04-30T10:31:05;100920.53;;;17.34;51.75
38227;BME280;24026;49.446;8.576;2023-04-30T10:36:12;100917.84;;;17.34;51.62
38227;BME280;24026;49.446;8.576;2023-04-30T10:38:34;100919.47;;;17.35;51.49
38227;BME280;24026;49.446;8.576;2023-04-30T10:40:55;100914.88;;;17.35;51.33
38227;BME280;24026;49.446;8.576;2023-04-30T10:43:18;100907.66;;;17.36;51.47
38227;BME280;24026;49.446;8.576;2023-04-30T10:45:41;100903.06;;;17.36;51.41
38227;BME280;24026;49.446;8.576;2023-04-30T10:48:02;100904.69;;;17.37;51.07
38227;BME280;24026;49.446;8.576;2023-04-30T10:50:23;100902.78;;;17.38;51.28
38227;BME280;24026;49.446;8.576;2023-04-30T10:52:43;100904.38;;;17.39;51.17
38227;BME280;24026;49.446;8.576;2023-04-30T10:55:04;100894.19;;;17.41;51.13
38227;BME280;24026;49.446;8.576;2023-04-30T10:57:25;100886.13;;;17.41;51.04
38227;BME280;24026;49.446;8.576;2023-04-30T11:02:37;100893.09;;;17.42;50.94
38227;BME280;24026;49.446;8.576;2023-04-30T11:07:26;100893.91;;;17.43;50.91
38227;BME280;24026;49.446;8.576;2023-04-30T11:09:47;100883.19;;;17.43;50.85
38227;BME280;24026;49.446;8.576;2023-04-30T11:12:12;100876.69;;;17.44;50.82
38227;BME280;24026;49.446;8.576;2023-04-30T11:14:32;100887.44;;;17.44;50.84
38227;BME280;24026;49.446;8.576;2023-04-30T11:16:53;100882.91;;;17.44;50.81
38227;BME280;24026;49.446;8.576;2023-04-30T11:19:15;100888.28;;;17.44;50.48
38227;BME280;24026;49.446;8.576;2023-04-30T11:21:43;100888.28;;;17.44;50.72
38227;BME280;24026;49.446;8.576;2023-04-30T11:24:21;100887.97;;;17.46;50.46
38227;BME280;24026;49.446;8.576;2023-04-30T11:27:25;100885.28;;;17.46;50.39
38227;BME280;24026;49.446;8.576;2023-04-30T11:29:25;100879.91;;;17.46;50.44
38227;BME280;24026;49.446;8.576;2023-04-30T11:31:46;100879.63;;;17.47;50.40
38227;BME280;24026;49.446;8.576;2023-04-30T11:34:06;100878.56;;;17.48;50.48
38227;BME280;24026;49.446;8.576;2023-04-30T11:36:29;100878.28;;;17.50;50.47
38227;BME280;24026;49.446;8.576;2023-04-30T11:38:49;100869.16;;;17.51;50.05
38227;BME280;24026;49.446;8.576;2023-04-30T11:41:11;100872.66;;;17.51;50.29
38227;BME280;24026;49.446;8.576;2023-04-30T11:43:32;100869.69;;;17.53;49.97
38227;BME280;24026;49.446;8.576;2023-04-30T11:48:24;100873.69;;;17.55;50.15
38227;BME280;24026;49.446;8.576;2023-04-30T11:50:44;100867.25;;;17.56;49.75
38227;BME280;24026;49.446;8.576;2023-04-30T11:53:04;100863.50;;;17.57;50.00
38227;BME280;24026;49.446;8.576;2023-04-30T11:55:25;100866.69;;;17.59;49.68
38227;BME280;24026;49.446;8.576;2023-04-30T11:57:50;100867.22;;;17.62;49.63
38227;BME280;24026;49.446;8.576;2023-04-30T12:00:12;100853.78;;;17.62;49.61
38227;BME280;24026;49.446;8.576;2023-04-30T12:02:32;100858.88;;;17.63;49.86
38227;BME280;24026;49.446;8.576;2023-04-30T12:04:53;100864.25;;;17.63;49.59
38227;BME280;24026;49.446;8.576;2023-04-30T12:07:13;100856.19;;;17.63;49.60
38227;BME280;24026;49.446;8.576;2023-04-30T12:09:50;100847.84;;;17.65;49.60
38227;BME280;24026;49.446;8.576;2023-04-30T12:12:10;100843.28;;;17.65;49.60
38227;BME280;24026;49.446;8.576;2023-04-30T12:14:30;100846.75;;;17.66;49.58
38227;BME280;24026;49.446;8.576;2023-04-30T12:16:52;100852.69;;;17.68;49.25
38227;BME280;24026;49.446;8.576;2023-04-30T12:19:13;100840.84;;;17.69;49.49
38227;BME280;24026;49.446;8.576;2023-04-30T12:21:33;100835.47;;;17.69;49.35
38227;BME280;24026;49.446;8.576;2023-04-30T12:23:54;100839.75;;;17.70;49.56
38227;BME280;24026;49.446;8.576;2023-04-30T12:26:14;100831.69;;;17.70;49.15
38227;BME280;24026;49.446;8.576;2023-04-30T12:28:34;100837.59;;;17.72;49.25
38227;BME280;24026;49.446;8.576;2023-04-30T12:30:55;100830.03;;;17.74;49.19
38227;BME280;24026;49.446;8.576;2023-04-30T12:33:16;100833.28;;;17.76;49.17
38227;BME280;24026;49.446;8.576;2023-04-30T12:35:40;100826.53;;;17.78;48.94
38227;BME280;24026;49.446;8.576;2023-04-30T12:38:05;100832.16;;;17.82;48.56
38227;BME280;24026;49.446;8.576;2023-04-30T12:40:26;100826.50;;;17.84;48.40
38227;BME280;24026;49.446;8.576;2023-04-30T12:42:46;100820.84;;;17.85;48.77
38227;BME280;24026;49.446;8.576;2023-04-30T12:45:07;100823.53;;;17.85;49.15